YDF weather

Deer Lake Airport
Deer Lake, Newfoundland and Labrador, Canada

Public forecast

Using degrees Celsius for public forecast. Weather courtesy of forecast.io.

METAR (pilot weather report)

Retrieved 2019/05/25 20:00 UTC (22 minutes ago):

CYDF 252000Z 22004KT 210V280 15SM SCT072 18/02 A2998 RMK CU4 SLP156 DENSITY ALT 400FT

TAF (pilot weather forecast)

Retrieved 2019/05/25 20:42 UTC (0 seconds ago):

TAF CYDF 251939Z 2520/2608 12005KT P6SM SCT060 FM260000 29005KT P6SM SKC RMK NXT FCST BY 260200Z